createdAt,value
2023-07-25T00:02:58.348Z,24.60
2023-07-25T00:06:05.145Z,24.58
2023-07-25T00:09:09.859Z,24.59
2023-07-25T00:12:19.127Z,24.59
2023-07-25T00:15:25.123Z,24.50
2023-07-25T00:18:27.174Z,24.51
2023-07-25T00:21:39.315Z,24.54
2023-07-25T00:24:42.491Z,24.58
2023-07-25T00:27:48.646Z,24.54
2023-07-25T00:30:50.813Z,24.60
2023-07-25T00:33:53.402Z,24.70
2023-07-25T00:36:55.818Z,24.83
2023-07-25T00:40:01.016Z,25.11
2023-07-25T00:43:03.479Z,25.37
2023-07-25T00:46:07.779Z,25.54
2023-07-25T00:49:15.328Z,25.71
2023-07-25T00:52:22.279Z,25.78
2023-07-25T00:55:32.570Z,25.73
2023-07-25T00:58:36.794Z,25.64
2023-07-25T01:01:42.569Z,25.44
2023-07-25T01:04:46.936Z,25.27
2023-07-25T01:07:57.791Z,25.03
2023-07-25T01:11:01.942Z,24.83
2023-07-25T01:14:07.282Z,24.42
2023-07-25T01:17:14.812Z,23.82
2023-07-25T01:20:19.194Z,23.08
2023-07-25T01:23:23.015Z,22.29
2023-07-25T01:26:24.997Z,21.37
2023-07-25T01:29:27.080Z,20.77
2023-07-25T01:32:29.098Z,20.42
2023-07-25T01:35:31.049Z,20.18
2023-07-25T01:38:33.324Z,20.04
2023-07-25T01:41:35.714Z,20.03
2023-07-25T01:44:37.686Z,20.03
2023-07-25T01:47:39.749Z,20.10
2023-07-25T01:50:41.831Z,19.97
2023-07-25T01:53:45.657Z,19.81
2023-07-25T01:56:50.386Z,19.83
2023-07-25T01:59:53.060Z,20.02
2023-07-25T02:02:55.109Z,20.00
2023-07-25T02:05:57.204Z,19.78
2023-07-25T02:08:59.291Z,19.73
2023-07-25T02:12:01.954Z,19.75
2023-07-25T02:15:04.393Z,19.71
2023-07-25T02:18:06.494Z,19.75
2023-07-25T02:21:08.480Z,19.92
2023-07-25T02:24:10.388Z,20.04
2023-07-25T02:27:12.526Z,20.07
2023-07-25T02:30:14.485Z,19.98
2023-07-25T02:33:16.474Z,19.89
2023-07-25T02:36:18.909Z,19.73
2023-07-25T02:39:20.889Z,19.61
2023-07-25T02:42:22.814Z,19.75
2023-07-25T02:45:25.703Z,19.88
2023-07-25T02:48:27.809Z,19.82
2023-07-25T02:51:30.111Z,19.86
2023-07-25T02:54:32.729Z,19.76
2023-07-25T02:57:34.675Z,19.86
2023-07-25T03:00:36.910Z,20.04
2023-07-25T03:03:41.365Z,20.04
2023-07-25T03:06:43.496Z,20.00
2023-07-25T03:09:46.062Z,19.95
2023-07-25T03:12:48.613Z,19.97
2023-07-25T03:15:51.114Z,19.99
2023-07-25T03:18:53.273Z,20.11
2023-07-25T03:21:56.480Z,20.17
2023-07-25T03:24:58.648Z,20.04
2023-07-25T03:28:00.652Z,19.96
2023-07-25T03:31:06.517Z,20.01
2023-07-25T03:34:08.788Z,19.97
2023-07-25T03:37:10.924Z,20.03
2023-07-25T03:40:17.474Z,20.01
2023-07-25T03:43:24.427Z,20.00
2023-07-25T03:46:36.261Z,20.05
2023-07-25T03:49:42.121Z,20.04
2023-07-25T03:52:44.324Z,20.19
2023-07-25T03:55:53.122Z,20.20
2023-07-25T03:58:55.264Z,20.27
2023-07-25T04:02:04.666Z,20.28
2023-07-25T04:05:09.267Z,20.34
2023-07-25T04:08:19.622Z,20.37
2023-07-25T04:11:39.041Z,20.32
2023-07-25T04:14:44.505Z,20.43
2023-07-25T04:17:53.455Z,20.44
2023-07-25T04:21:01.160Z,20.49
2023-07-25T04:24:03.560Z,20.48
2023-07-25T04:27:14.103Z,20.71
2023-07-25T04:30:20.485Z,20.85
2023-07-25T04:33:35.555Z,20.90
2023-07-25T04:58:08.570Z,21.45
2023-07-25T05:01:17.055Z,22.00
2023-07-25T05:04:56.355Z,22.21
2023-07-25T05:08:34.350Z,22.39
2023-07-25T05:15:00.454Z,23.38
2023-07-25T05:18:17.787Z,23.24
2023-07-25T05:21:23.097Z,23.25
2023-07-25T05:28:18.579Z,25.00
2023-07-25T05:31:31.139Z,24.99
2023-07-25T05:34:43.129Z,24.36
2023-07-25T05:37:53.131Z,24.22
2023-07-25T05:41:14.223Z,24.09
2023-07-25T05:44:30.982Z,24.11
2023-07-25T05:47:33.844Z,24.18
2023-07-25T05:50:43.034Z,23.96
2023-07-25T05:53:52.652Z,23.98
2023-07-25T05:57:13.572Z,23.88
2023-07-25T06:00:17.060Z,24.11
2023-07-25T06:03:19.529Z,24.22
2023-07-25T06:06:24.689Z,24.47
2023-07-25T06:09:27.073Z,24.51
2023-07-25T06:12:40.563Z,24.60
2023-07-25T06:15:50.374Z,24.34
2023-07-25T06:19:09.626Z,24.52
2023-07-25T06:22:20.434Z,24.86
2023-07-25T06:25:34.988Z,24.91
2023-07-25T06:28:42.924Z,25.19
2023-07-25T06:31:46.233Z,25.13
2023-07-25T06:34:49.101Z,25.24
2023-07-25T06:37:55.509Z,25.53
2023-07-25T06:40:58.516Z,25.89
2023-07-25T06:44:06.297Z,25.94
2023-07-25T06:47:14.657Z,25.87
2023-07-25T06:50:17.281Z,26.37
2023-07-25T06:53:28.606Z,26.73
2023-07-25T06:56:36.121Z,26.68
2023-07-25T06:59:39.840Z,26.71
2023-07-25T07:02:42.534Z,26.89
2023-07-25T07:05:55.488Z,26.90
2023-07-25T07:08:58.514Z,26.96
2023-07-25T07:12:02.743Z,26.93
2023-07-25T07:15:06.976Z,27.03
2023-07-25T07:18:11.074Z,26.86
2023-07-25T07:21:14.385Z,27.01
2023-07-25T07:24:17.768Z,27.19
2023-07-25T07:27:21.316Z,27.39
2023-07-25T07:30:25.513Z,28.14
2023-07-25T07:33:27.678Z,28.44
2023-07-25T07:36:29.701Z,28.55
2023-07-25T07:39:37.635Z,29.73
2023-07-25T07:42:42.249Z,29.83
2023-07-25T07:45:44.409Z,29.45
2023-07-25T07:48:48.052Z,28.71
2023-07-25T07:52:09.753Z,28.63
2023-07-25T07:55:16.032Z,28.35
2023-07-25T07:58:19.736Z,28.00
2023-07-25T08:01:25.837Z,27.80
2023-07-25T08:04:31.195Z,27.27
2023-07-25T08:07:39.258Z,26.91
2023-07-25T08:10:48.563Z,26.56
2023-07-25T08:13:51.106Z,26.17
2023-07-25T08:16:53.258Z,25.91
2023-07-25T08:19:59.226Z,25.88
2023-07-25T08:23:09.086Z,25.65
2023-07-25T08:26:23.782Z,25.55
2023-07-25T08:29:32.788Z,25.29
2023-07-25T08:32:35.448Z,25.12
2023-07-25T08:35:43.694Z,25.11
2023-07-25T08:38:50.577Z,25.08
2023-07-25T08:41:58.410Z,24.99
2023-07-25T08:45:09.744Z,24.78
2023-07-25T08:48:12.954Z,24.05
2023-07-25T08:51:29.236Z,23.24
2023-07-25T08:54:42.997Z,22.73
2023-07-25T09:01:32.310Z,21.85
2023-07-25T09:04:37.598Z,21.79
2023-07-25T09:07:39.753Z,21.71
2023-07-25T09:10:42.278Z,21.53
2023-07-25T09:13:47.069Z,21.40
2023-07-25T09:16:53.286Z,21.39
2023-07-25T09:19:55.740Z,21.37
2023-07-25T09:22:59.127Z,21.22
2023-07-25T09:26:11.550Z,21.06
2023-07-25T09:29:15.026Z,20.95
2023-07-25T09:32:22.641Z,20.79
2023-07-25T09:35:25.176Z,20.66
2023-07-25T09:38:29.484Z,20.56
2023-07-25T09:41:32.490Z,20.41
2023-07-25T09:44:34.972Z,20.26
2023-07-25T09:47:37.856Z,20.16
2023-07-25T09:50:40.542Z,19.89
2023-07-25T09:53:43.023Z,19.68
2023-07-25T09:56:45.347Z,19.67
2023-07-25T09:59:48.828Z,19.59
2023-07-25T10:02:51.094Z,19.52
2023-07-25T10:05:54.380Z,19.64
2023-07-25T10:08:58.563Z,19.82
2023-07-25T10:12:00.523Z,19.90
2023-07-25T10:15:02.602Z,19.73
2023-07-25T10:18:05.215Z,19.63
2023-07-25T10:21:09.030Z,19.61
2023-07-25T10:24:12.822Z,19.60
2023-07-25T10:27:14.945Z,19.62
2023-07-25T10:30:24.364Z,19.62
2023-07-25T10:33:26.513Z,19.74
2023-07-25T10:36:28.565Z,20.01
2023-07-25T10:39:30.729Z,20.29
2023-07-25T10:46:01.194Z,21.14
2023-07-25T10:49:05.606Z,21.38
2023-07-25T10:52:07.854Z,21.33
2023-07-25T10:55:13.824Z,21.10
2023-07-25T10:58:16.440Z,21.26
2023-07-25T11:01:35.829Z,21.49
2023-07-25T11:04:38.225Z,21.60
2023-07-25T11:07:40.525Z,22.03
2023-07-25T11:10:43.284Z,22.38
2023-07-25T11:13:45.424Z,22.53
2023-07-25T11:16:53.070Z,22.56
2023-07-25T11:20:01.785Z,22.34
2023-07-25T11:23:10.450Z,22.11
2023-07-25T11:26:25.191Z,22.30
2023-07-25T11:29:27.837Z,22.57
2023-07-25T11:32:37.078Z,22.69
2023-07-25T11:35:41.490Z,22.73
2023-07-25T11:38:49.610Z,22.68
2023-07-25T11:41:51.962Z,23.02
2023-07-25T11:44:56.333Z,23.16
2023-07-25T11:48:21.527Z,23.06
2023-07-25T11:55:30.676Z,22.90
2023-07-25T11:58:38.492Z,23.12
2023-07-25T12:05:33.777Z,23.13
2023-07-25T12:08:48.148Z,23.27
2023-07-25T12:11:55.500Z,23.48
2023-07-25T12:15:13.884Z,23.91
2023-07-25T12:19:04.879Z,23.85
2023-07-25T12:22:16.789Z,23.37
2023-07-25T22:13:31.230Z,19.74
2023-07-25T22:16:58.396Z,19.78
2023-07-25T22:20:01.307Z,19.75
2023-07-25T22:23:15.217Z,19.68
2023-07-25T22:26:33.109Z,19.67
2023-07-25T22:29:37.432Z,19.69
2023-07-25T22:32:44.666Z,19.68
2023-07-25T22:35:47.492Z,19.56
2023-07-25T22:38:50.466Z,19.59
2023-07-25T22:42:02.297Z,19.59
2023-07-25T22:48:57.144Z,19.59
2023-07-25T22:52:08.060Z,19.50
2023-07-25T22:55:12.685Z,19.54
2023-07-25T22:58:15.099Z,19.54
2023-07-25T23:01:17.824Z,19.47
2023-07-25T23:04:22.627Z,19.33
2023-07-25T23:07:29.319Z,19.34
2023-07-25T23:10:31.915Z,19.39
2023-07-25T23:13:35.089Z,19.41
2023-07-25T23:16:39.899Z,19.45
2023-07-25T23:19:46.912Z,19.47
2023-07-25T23:22:59.069Z,19.46
2023-07-25T23:26:06.981Z,19.52
2023-07-25T23:29:09.962Z,19.48
2023-07-25T23:32:26.374Z,19.52
2023-07-25T23:35:51.626Z,19.55
2023-07-25T23:39:08.180Z,19.60
2023-07-25T23:42:11.148Z,19.63
2023-07-25T23:45:13.677Z,19.65
2023-07-25T23:48:28.475Z,19.64
2023-07-25T23:51:31.576Z,19.69
2023-07-25T23:54:34.282Z,19.75
2023-07-25T23:58:05.126Z,19.77
